sensor_id;sensor_type;location;lat;lon;timestamp;temperature;humidity
2945;DHT22;1482;51.398;7.128;2023-05-20T00:01:13;12.60;1.00
2945;DHT22;1482;51.398;7.128;2023-05-20T00:03:39;12.60;1.00
2945;DHT22;1482;51.398;7.128;2023-05-20T00:06:05;12.50;1.00
2945;DHT22;1482;51.398;7.128;2023-05-20T00:08:30;12.50;1.00
2945;DHT22;1482;51.398;7.128;2023-05-20T00:10:56;12.40;1.00
2945;DHT22;1482;51.398;7.128;2023-05-20T00:13:21;12.40;1.00
2945;DHT22;1482;51.398;7.128;2023-05-20T00:15:48;12.40;1.00
2945;DHT22;1482;51.398;7.128;2023-05-20T00:18:14;12.30;1.00
2945;DHT22;1482;51.398;7.128;2023-05-20T00:20:39;12.30;1.00
2945;DHT22;1482;51.398;7.128;2023-05-20T00:23:05;12.30;1.00
2945;DHT22;1482;51.398;7.128;2023-05-20T00:25:31;12.20;1.00
2945;DHT22;1482;51.398;7.128;2023-05-20T00:27:56;12.20;1.00
2945;DHT22;1482;51.398;7.128;2023-05-20T00:30:22;12.20;1.00
2945;DHT22;1482;51.398;7.128;2023-05-20T00:32:47;12.20;1.00
2945;DHT22;1482;51.398;7.128;2023-05-20T00:35:13;12.20;1.00
2945;DHT22;1482;51.398;7.128;2023-05-20T00:37:38;12.10;1.00
2945;DHT22;1482;51.398;7.128;2023-05-20T00:40:04;12.10;1.00
2945;DHT22;1482;51.398;7.128;2023-05-20T00:42:30;12.10;1.00
2945;DHT22;1482;51.398;7.128;2023-05-20T00:44:56;12.00;1.00
2945;DHT22;1482;51.398;7.128;2023-05-20T00:47:26;11.90;1.00
2945;DHT22;1482;51.398;7.128;2023-05-20T00:49:53;11.80;1.00
2945;DHT22;1482;51.398;7.128;2023-05-20T00:52:18;11.80;1.00
2945;DHT22;1482;51.398;7.128;2023-05-20T00:54:45;11.80;1.00
2945;DHT22;1482;51.398;7.128;2023-05-20T00:57:11;11.70;1.00
2945;DHT22;1482;51.398;7.128;2023-05-20T00:59:37;11.70;1.00
2945;DHT22;1482;51.398;7.128;2023-05-20T01:02:03;11.70;1.00
2945;DHT22;1482;51.398;7.128;2023-05-20T01:04:30;11.60;1.00
2945;DHT22;1482;51.398;7.128;2023-05-20T01:06:57;11.60;1.00
2945;DHT22;1482;51.398;7.128;2023-05-20T01:09:26;11.60;1.00
2945;DHT22;1482;51.398;7.128;2023-05-20T01:14:26;11.60;1.00
2945;DHT22;1482;51.398;7.128;2023-05-20T01:16:55;11.40;1.00
2945;DHT22;1482;51.398;7.128;2023-05-20T01:19:30;11.40;1.00
2945;DHT22;1482;51.398;7.128;2023-05-20T01:22:02;11.40;1.00
2945;DHT22;1482;51.398;7.128;2023-05-20T01:24:30;11.50;1.00
2945;DHT22;1482;51.398;7.128;2023-05-20T01:26:55;11.30;1.00
2945;DHT22;1482;51.398;7.128;2023-05-20T01:29:23;11.40;1.00
2945;DHT22;1482;51.398;7.128;2023-05-20T01:31:49;11.40;1.00
2945;DHT22;1482;51.398;7.128;2023-05-20T01:34:16;11.40;1.00
2945;DHT22;1482;51.398;7.128;2023-05-20T01:36:43;11.40;1.00
2945;DHT22;1482;51.398;7.128;2023-05-20T01:39:10;11.40;1.00
2945;DHT22;1482;51.398;7.128;2023-05-20T01:41:37;11.40;1.00
2945;DHT22;1482;51.398;7.128;2023-05-20T01:44:02;11.40;1.00
2945;DHT22;1482;51.398;7.128;2023-05-20T01:46:32;11.40;1.00
2945;DHT22;1482;51.398;7.128;2023-05-20T01:48:58;11.20;1.00
2945;DHT22;1482;51.398;7.128;2023-05-20T01:51:24;11.30;1.00
2945;DHT22;1482;51.398;7.128;2023-05-20T01:53:49;11.30;1.00
2945;DHT22;1482;51.398;7.128;2023-05-20T01:56:15;11.30;1.00
2945;DHT22;1482;51.398;7.128;2023-05-20T01:58:40;11.20;1.00
2945;DHT22;1482;51.398;7.128;2023-05-20T02:01:06;11.20;1.00
2945;DHT22;1482;51.398;7.128;2023-05-20T02:03:31;11.20;1.00
2945;DHT22;1482;51.398;7.128;2023-05-20T02:05:57;11.20;1.00
2945;DHT22;1482;51.398;7.128;2023-05-20T02:08:22;11.10;1.00
2945;DHT22;1482;51.398;7.128;2023-05-20T02:10:48;11.00;1.00
2945;DHT22;1482;51.398;7.128;2023-05-20T02:13:14;10.90;1.00
2945;DHT22;1482;51.398;7.128;2023-05-20T02:15:42;10.90;1.00
2945;DHT22;1482;51.398;7.128;2023-05-20T02:18:09;11.00;1.00
2945;DHT22;1482;51.398;7.128;2023-05-20T02:20:36;10.90;1.00
2945;DHT22;1482;51.398;7.128;2023-05-20T02:23:02;10.90;1.00
2945;DHT22;1482;51.398;7.128;2023-05-20T02:25:30;10.90;1.00
2945;DHT22;1482;51.398;7.128;2023-05-20T02:27:56;10.90;1.00
2945;DHT22;1482;51.398;7.128;2023-05-20T02:30:22;10.90;1.00
2945;DHT22;1482;51.398;7.128;2023-05-20T02:32:47;11.00;1.00
2945;DHT22;1482;51.398;7.128;2023-05-20T02:35:13;11.00;1.00
2945;DHT22;1482;51.398;7.128;2023-05-20T02:37:38;11.00;1.00
2945;DHT22;1482;51.398;7.128;2023-05-20T02:40:04;11.00;1.00
2945;DHT22;1482;51.398;7.128;2023-05-20T02:42:30;11.00;1.00
2945;DHT22;1482;51.398;7.128;2023-05-20T02:44:56;11.00;1.00
2945;DHT22;1482;51.398;7.128;2023-05-20T02:47:23;11.00;1.00
2945;DHT22;1482;51.398;7.128;2023-05-20T02:49:49;11.00;1.00
2945;DHT22;1482;51.398;7.128;2023-05-20T02:52:15;11.00;1.00
2945;DHT22;1482;51.398;7.128;2023-05-20T02:54:40;10.90;1.00
2945;DHT22;1482;51.398;7.128;2023-05-20T02:57:06;10.90;1.00
2945;DHT22;1482;51.398;7.128;2023-05-20T02:59:31;10.80;1.00
2945;DHT22;1482;51.398;7.128;2023-05-20T03:01:57;10.80;1.00
2945;DHT22;1482;51.398;7.128;2023-05-20T03:04:22;10.80;1.00
2945;DHT22;1482;51.398;7.128;2023-05-20T03:06:50;10.80;1.00
2945;DHT22;1482;51.398;7.128;2023-05-20T03:09:17;10.70;1.00
2945;DHT22;1482;51.398;7.128;2023-05-20T03:11:44;10.70;1.00
2945;DHT22;1482;51.398;7.128;2023-05-20T03:14:10;10.50;1.00
2945;DHT22;1482;51.398;7.128;2023-05-20T03:16:35;10.60;1.00
2945;DHT22;1482;51.398;7.128;2023-05-20T03:19:01;10.60;1.00
2945;DHT22;1482;51.398;7.128;2023-05-20T03:21:27;10.50;1.00
2945;DHT22;1482;51.398;7.128;2023-05-20T03:23:53;10.40;1.00
2945;DHT22;1482;51.398;7.128;2023-05-20T03:26:18;10.50;1.00
2945;DHT22;1482;51.398;7.128;2023-05-20T03:28:45;10.30;1.00
2945;DHT22;1482;51.398;7.128;2023-05-20T03:31:11;10.30;1.00
2945;DHT22;1482;51.398;7.128;2023-05-20T03:33:36;10.40;1.00
2945;DHT22;1482;51.398;7.128;2023-05-20T03:36:02;10.40;1.00
2945;DHT22;1482;51.398;7.128;2023-05-20T03:38:27;10.40;1.00
2945;DHT22;1482;51.398;7.128;2023-05-20T03:40:53;10.30;1.00
2945;DHT22;1482;51.398;7.128;2023-05-20T03:43:18;10.30;1.00
2945;DHT22;1482;51.398;7.128;2023-05-20T03:45:44;10.30;1.00
2945;DHT22;1482;51.398;7.128;2023-05-20T03:48:09;10.30;1.00
2945;DHT22;1482;51.398;7.128;2023-05-20T03:50:35;10.30;1.00
2945;DHT22;1482;51.398;7.128;2023-05-20T03:53:01;10.40;1.00
2945;DHT22;1482;51.398;7.128;2023-05-20T03:55:26;10.40;1.00
2945;DHT22;1482;51.398;7.128;2023-05-20T03:57:52;10.50;1.00
2945;DHT22;1482;51.398;7.128;2023-05-20T04:00:17;10.40;1.00
2945;DHT22;1482;51.398;7.128;2023-05-20T04:02:43;10.40;1.00
2945;DHT22;1482;51.398;7.128;2023-05-20T04:05:09;10.50;1.00
2945;DHT22;1482;51.398;7.128;2023-05-20T04:07:35;10.60;1.00
2945;DHT22;1482;51.398;7.128;2023-05-20T04:10:01;10.60;1.00
2945;DHT22;1482;51.398;7.128;2023-05-20T04:12:26;10.70;1.00
2945;DHT22;1482;51.398;7.128;2023-05-20T04:14:57;10.80;1.00
2945;DHT22;1482;51.398;7.128;2023-05-20T04:17:26;10.90;1.00
2945;DHT22;1482;51.398;7.128;2023-05-20T04:19:52;11.10;1.00
2945;DHT22;1482;51.398;7.128;2023-05-20T04:22:18;11.10;1.00
2945;DHT22;1482;51.398;7.128;2023-05-20T04:24:43;11.30;1.00
2945;DHT22;1482;51.398;7.128;2023-05-20T04:27:10;11.70;1.00
2945;DHT22;1482;51.398;7.128;2023-05-20T04:29:35;13.00;1.00
2945;DHT22;1482;51.398;7.128;2023-05-20T04:32:01;14.30;1.00
2945;DHT22;1482;51.398;7.128;2023-05-20T04:34:28;15.20;1.00
2945;DHT22;1482;51.398;7.128;2023-05-20T04:36:54;16.30;1.00
2945;DHT22;1482;51.398;7.128;2023-05-20T04:39:22;17.30;1.00
2945;DHT22;1482;51.398;7.128;2023-05-20T04:41:47;18.10;1.00
2945;DHT22;1482;51.398;7.128;2023-05-20T04:44:13;18.20;1.00
2945;DHT22;1482;51.398;7.128;2023-05-20T04:46:39;18.60;1.00
2945;DHT22;1482;51.398;7.128;2023-05-20T04:49:05;18.70;1.00
2945;DHT22;1482;51.398;7.128;2023-05-20T04:51:31;19.80;1.00
2945;DHT22;1482;51.398;7.128;2023-05-20T04:53:58;20.50;1.00
2945;DHT22;1482;51.398;7.128;2023-05-20T04:56:23;21.50;1.00
2945;DHT22;1482;51.398;7.128;2023-05-20T04:58:50;21.60;1.00
2945;DHT22;1482;51.398;7.128;2023-05-20T05:01:16;22.10;1.00
2945;DHT22;1482;51.398;7.128;2023-05-20T05:03:41;22.20;1.00
2945;DHT22;1482;51.398;7.128;2023-05-20T05:06:07;23.20;1.00
2945;DHT22;1482;51.398;7.128;2023-05-20T05:08:33;23.90;1.00
2945;DHT22;1482;51.398;7.128;2023-05-20T05:10:59;23.50;1.00
2945;DHT22;1482;51.398;7.128;2023-05-20T05:13:25;23.50;1.00
2945;DHT22;1482;51.398;7.128;2023-05-20T05:15:57;23.90;1.00
2945;DHT22;1482;51.398;7.128;2023-05-20T05:18:23;23.40;1.00
2945;DHT22;1482;51.398;7.128;2023-05-20T05:20:49;23.50;1.00
2945;DHT22;1482;51.398;7.128;2023-05-20T05:23:14;25.00;1.00
2945;DHT22;1482;51.398;7.128;2023-05-20T05:25:40;24.90;1.00
2945;DHT22;1482;51.398;7.128;2023-05-20T05:28:05;24.70;1.00
2945;DHT22;1482;51.398;7.128;2023-05-20T05:30:31;24.40;1.00
2945;DHT22;1482;51.398;7.128;2023-05-20T05:32:56;24.40;1.00
2945;DHT22;1482;51.398;7.128;2023-05-20T05:35:22;23.50;1.00
2945;DHT22;1482;51.398;7.128;2023-05-20T05:37:47;23.70;1.00
2945;DHT22;1482;51.398;7.128;2023-05-20T05:40:13;22.60;1.00
2945;DHT22;1482;51.398;7.128;2023-05-20T05:42:39;21.50;1.00
2945;DHT22;1482;51.398;7.128;2023-05-20T05:45:05;20.80;1.00
2945;DHT22;1482;51.398;7.128;2023-05-20T05:47:30;19.70;1.00
2945;DHT22;1482;51.398;7.128;2023-05-20T05:49:57;18.50;1.00
2945;DHT22;1482;51.398;7.128;2023-05-20T05:52:24;17.60;1.00
2945;DHT22;1482;51.398;7.128;2023-05-20T05:54:49;17.60;1.00
2945;DHT22;1482;51.398;7.128;2023-05-20T05:57:15;17.40;1.00
2945;DHT22;1482;51.398;7.128;2023-05-20T05:59:41;16.80;1.00
2945;DHT22;1482;51.398;7.128;2023-05-20T06:02:06;15.90;1.00
2945;DHT22;1482;51.398;7.128;2023-05-20T06:04:34;16.30;1.00
2945;DHT22;1482;51.398;7.128;2023-05-20T06:06:59;16.30;1.00
2945;DHT22;1482;51.398;7.128;2023-05-20T06:09:25;16.70;1.00
2945;DHT22;1482;51.398;7.128;2023-05-20T06:11:50;17.70;1.00
2945;DHT22;1482;51.398;7.128;2023-05-20T06:14:16;19.90;1.00
2945;DHT22;1482;51.398;7.128;2023-05-20T06:16:41;22.50;1.00
2945;DHT22;1482;51.398;7.128;2023-05-20T06:19:07;25.20;1.00
2945;DHT22;1482;51.398;7.128;2023-05-20T06:21:33;27.00;1.00
2945;DHT22;1482;51.398;7.128;2023-05-20T06:23:59;28.50;1.00
2945;DHT22;1482;51.398;7.128;2023-05-20T06:26:24;27.90;1.00
2945;DHT22;1482;51.398;7.128;2023-05-20T06:28:50;29.10;1.00
2945;DHT22;1482;51.398;7.128;2023-05-20T06:31:16;28.00;1.00
2945;DHT22;1482;51.398;7.128;2023-05-20T06:33:41;29.50;1.00
2945;DHT22;1482;51.398;7.128;2023-05-20T06:36:07;30.20;1.00
2945;DHT22;1482;51.398;7.128;2023-05-20T06:38:32;30.00;1.00
2945;DHT22;1482;51.398;7.128;2023-05-20T06:40:58;27.80;1.00
2945;DHT22;1482;51.398;7.128;2023-05-20T06:43:23;29.30;1.00
2945;DHT22;1482;51.398;7.128;2023-05-20T06:45:49;27.70;1.00
2945;DHT22;1482;51.398;7.128;2023-05-20T06:48:15;27.80;1.00
2945;DHT22;1482;51.398;7.128;2023-05-20T06:50:40;26.50;1.00
2945;DHT22;1482;51.398;7.128;2023-05-20T06:53:06;24.90;1.00
2945;DHT22;1482;51.398;7.128;2023-05-20T06:55:31;23.30;1.00
2945;DHT22;1482;51.398;7.128;2023-05-20T06:57:57;21.00;1.00
2945;DHT22;1482;51.398;7.128;2023-05-20T07:00:22;20.10;1.00
2945;DHT22;1482;51.398;7.128;2023-05-20T07:02:48;18.50;1.00
2945;DHT22;1482;51.398;7.128;2023-05-20T07:05:14;16.90;1.00
2945;DHT22;1482;51.398;7.128;2023-05-20T07:07:39;16.40;1.00
2945;DHT22;1482;51.398;7.128;2023-05-20T07:10:05;15.80;1.00
2945;DHT22;1482;51.398;7.128;2023-05-20T07:12:31;15.40;1.00
2945;DHT22;1482;51.398;7.128;2023-05-20T07:14:57;15.00;1.00
2945;DHT22;1482;51.398;7.128;2023-05-20T07:17:24;14.80;1.00
2945;DHT22;1482;51.398;7.128;2023-05-20T07:19:49;14.80;1.00
2945;DHT22;1482;51.398;7.128;2023-05-20T07:22:15;14.80;1.00
2945;DHT22;1482;51.398;7.128;2023-05-20T07:24:41;14.60;1.00
2945;DHT22;1482;51.398;7.128;2023-05-20T07:27:06;14.70;1.00
2945;DHT22;1482;51.398;7.128;2023-05-20T07:29:33;14.80;1.00
2945;DHT22;1482;51.398;7.128;2023-05-20T07:31:59;14.80;1.00
2945;DHT22;1482;51.398;7.128;2023-05-20T07:34:24;15.00;1.00
2945;DHT22;1482;51.398;7.128;2023-05-20T07:36:50;15.00;1.00
2945;DHT22;1482;51.398;7.128;2023-05-20T07:39:15;15.00;1.00
2945;DHT22;1482;51.398;7.128;2023-05-20T07:41:41;15.10;1.00
2945;DHT22;1482;51.398;7.128;2023-05-20T07:44:07;15.20;1.00
2945;DHT22;1482;51.398;7.128;2023-05-20T07:46:36;15.10;1.00
2945;DHT22;1482;51.398;7.128;2023-05-20T07:49:03;14.70;1.00
2945;DHT22;1482;51.398;7.128;2023-05-20T07:51:28;14.80;1.00
2945;DHT22;1482;51.398;7.128;2023-05-20T07:53:54;15.00;1.00
2945;DHT22;1482;51.398;7.128;2023-05-20T07:56:20;15.40;1.00
2945;DHT22;1482;51.398;7.128;2023-05-20T07:58:55;15.30;1.00
2945;DHT22;1482;51.398;7.128;2023-05-20T08:01:21;15.40;1.00
2945;DHT22;1482;51.398;7.128;2023-05-20T08:03:47;15.30;1.00
2945;DHT22;1482;51.398;7.128;2023-05-20T08:06:12;15.40;1.00
2945;DHT22;1482;51.398;7.128;2023-05-20T08:08:38;15.50;1.00
2945;DHT22;1482;51.398;7.128;2023-05-20T08:11:06;15.30;1.00
2945;DHT22;1482;51.398;7.128;2023-05-20T08:13:31;15.80;1.00
2945;DHT22;1482;51.398;7.128;2023-05-20T08:15:57;16.00;1.00
2945;DHT22;1482;51.398;7.128;2023-05-20T08:18:22;16.20;1.00
2945;DHT22;1482;51.398;7.128;2023-05-20T08:20:48;16.50;1.00
2945;DHT22;1482;51.398;7.128;2023-05-20T08:23:14;16.40;1.00
2945;DHT22;1482;51.398;7.128;2023-05-20T08:25:39;16.40;1.00
2945;DHT22;1482;51.398;7.128;2023-05-20T08:28:05;16.50;1.00
2945;DHT22;1482;51.398;7.128;2023-05-20T08:30:32;16.70;1.00
2945;DHT22;1482;51.398;7.128;2023-05-20T08:32:58;16.80;1.00
2945;DHT22;1482;51.398;7.128;2023-05-20T08:35:24;17.00;1.00
2945;DHT22;1482;51.398;7.128;2023-05-20T08:37:51;16.80;1.00
2945;DHT22;1482;51.398;7.128;2023-05-20T08:40:19;16.50;1.00
2945;DHT22;1482;51.398;7.128;2023-05-20T08:42:47;16.20;1.00
2945;DHT22;1482;51.398;7.128;2023-05-20T08:45:17;16.30;1.00
2945;DHT22;1482;51.398;7.128;2023-05-20T08:47:43;16.30;1.00
2945;DHT22;1482;51.398;7.128;2023-05-20T08:50:10;16.50;1.00
2945;DHT22;1482;51.398;7.128;2023-05-20T08:52:37;16.70;1.00
2945;DHT22;1482;51.398;7.128;2023-05-20T08:55:08;16.60;1.00
2945;DHT22;1482;51.398;7.128;2023-05-20T08:57:36;16.50;1.00
2945;DHT22;1482;51.398;7.128;2023-05-20T09:00:02;16.50;1.00
2945;DHT22;1482;51.398;7.128;2023-05-20T09:02:36;16.80;1.00
2945;DHT22;1482;51.398;7.128;2023-05-20T09:05:03;16.80;1.00
2945;DHT22;1482;51.398;7.128;2023-05-20T09:07:30;16.90;1.00
2945;DHT22;1482;51.398;7.128;2023-05-20T09:09:56;17.00;1.00
2945;DHT22;1482;51.398;7.128;2023-05-20T09:12:22;17.20;1.00
2945;DHT22;1482;51.398;7.128;2023-05-20T09:14:48;17.00;1.00
2945;DHT22;1482;51.398;7.128;2023-05-20T09:17:14;16.60;1.00
2945;DHT22;1482;51.398;7.128;2023-05-20T09:19:39;16.30;1.00
2945;DHT22;1482;51.398;7.128;2023-05-20T09:22:06;16.40;1.00
2945;DHT22;1482;51.398;7.128;2023-05-20T09:24:31;16.30;1.00
2945;DHT22;1482;51.398;7.128;2023-05-20T09:26:57;16.20;1.00
2945;DHT22;1482;51.398;7.128;2023-05-20T09:29:23;16.20;1.00
2945;DHT22;1482;51.398;7.128;2023-05-20T09:31:49;16.30;1.00
2945;DHT22;1482;51.398;7.128;2023-05-20T09:34:15;16.60;1.00
2945;DHT22;1482;51.398;7.128;2023-05-20T09:36:42;17.00;1.00
2945;DHT22;1482;51.398;7.128;2023-05-20T09:39:21;17.30;1.00
2945;DHT22;1482;51.398;7.128;2023-05-20T09:42:22;16.90;1.00
2945;DHT22;1482;51.398;7.128;2023-05-20T09:44:51;16.40;1.00
2945;DHT22;1482;51.398;7.128;2023-05-20T09:47:18;16.40;1.00
2945;DHT22;1482;51.398;7.128;2023-05-20T09:49:45;16.50;1.00
2945;DHT22;1482;51.398;7.128;2023-05-20T09:52:12;16.40;1.00
2945;DHT22;1482;51.398;7.128;2023-05-20T09:54:39;16.40;1.00
2945;DHT22;1482;51.398;7.128;2023-05-20T09:57:06;16.00;1.00
2945;DHT22;1482;51.398;7.128;2023-05-20T09:59:32;16.20;1.00
2945;DHT22;1482;51.398;7.128;2023-05-20T10:01:59;16.40;1.00
2945;DHT22;1482;51.398;7.128;2023-05-20T10:04:26;16.30;1.00
2945;DHT22;1482;51.398;7.128;2023-05-20T10:20:23;16.80;1.00
2945;DHT22;1482;51.398;7.128;2023-05-20T10:22:57;16.90;1.00
2945;DHT22;1482;51.398;7.128;2023-05-20T10:25:26;17.10;1.00
2945;DHT22;1482;51.398;7.128;2023-05-20T10:28:02;17.10;1.00
2945;DHT22;1482;51.398;7.128;2023-05-20T10:30:28;16.70;1.00
2945;DHT22;1482;51.398;7.128;2023-05-20T10:32:56;16.90;1.00
2945;DHT22;1482;51.398;7.128;2023-05-20T10:35:23;17.00;1.00
2945;DHT22;1482;51.398;7.128;2023-05-20T10:37:53;17.10;1.00
2945;DHT22;1482;51.398;7.128;2023-05-20T10:40:21;16.80;1.00
2945;DHT22;1482;51.398;7.128;2023-05-20T10:42:47;16.90;1.00
2945;DHT22;1482;51.398;7.128;2023-05-20T10:45:28;17.10;1.00
2945;DHT22;1482;51.398;7.128;2023-05-20T10:47:57;17.20;1.00
2945;DHT22;1482;51.398;7.128;2023-05-20T10:50:36;17.50;1.00
2945;DHT22;1482;51.398;7.128;2023-05-20T10:53:11;17.60;1.00
2945;DHT22;1482;51.398;7.128;2023-05-20T10:55:37;17.90;1.00
2945;DHT22;1482;51.398;7.128;2023-05-20T10:58:04;18.10;1.00
2945;DHT22;1482;51.398;7.128;2023-05-20T11:00:33;18.20;1.00
2945;DHT22;1482;51.398;7.128;2023-05-20T11:02:59;18.40;1.00
2945;DHT22;1482;51.398;7.128;2023-05-20T11:05:26;18.50;1.00
2945;DHT22;1482;51.398;7.128;2023-05-20T11:08:00;18.80;1.00
2945;DHT22;1482;51.398;7.128;2023-05-20T11:10:25;18.70;1.00
2945;DHT22;1482;51.398;7.128;2023-05-20T11:12:51;18.90;1.00
2945;DHT22;1482;51.398;7.128;2023-05-20T11:15:17;19.10;1.00
2945;DHT22;1482;51.398;7.128;2023-05-20T11:17:55;19.20;1.00
2945;DHT22;1482;51.398;7.128;2023-05-20T11:20:22;19.00;1.00
2945;DHT22;1482;51.398;7.128;2023-05-20T11:22:50;19.20;1.00
2945;DHT22;1482;51.398;7.128;2023-05-20T11:25:16;18.90;1.00
2945;DHT22;1482;51.398;7.128;2023-05-20T11:27:43;18.90;1.00
2945;DHT22;1482;51.398;7.128;2023-05-20T11:30:13;19.00;1.00
2945;DHT22;1482;51.398;7.128;2023-05-20T11:32:55;19.40;1.00
2945;DHT22;1482;51.398;7.128;2023-05-20T11:35:25;19.10;1.00
2945;DHT22;1482;51.398;7.128;2023-05-20T11:38:06;19.40;1.00
2945;DHT22;1482;51.398;7.128;2023-05-20T11:40:34;19.60;1.00
2945;DHT22;1482;51.398;7.128;2023-05-20T11:43:03;19.80;1.00
2945;DHT22;1482;51.398;7.128;2023-05-20T11:45:45;20.30;1.00
2945;DHT22;1482;51.398;7.128;2023-05-20T11:48:11;19.70;1.00
2945;DHT22;1482;51.398;7.128;2023-05-20T11:50:42;19.70;1.00
2945;DHT22;1482;51.398;7.128;2023-05-20T11:53:11;19.90;1.00
2945;DHT22;1482;51.398;7.128;2023-05-20T11:55:53;20.20;1.00
2945;DHT22;1482;51.398;7.128;2023-05-20T11:58:22;19.90;1.00
2945;DHT22;1482;51.398;7.128;2023-05-20T12:00:49;20.30;1.00
2945;DHT22;1482;51.398;7.128;2023-05-20T12:03:15;20.70;1.00
2945;DHT22;1482;51.398;7.128;2023-05-20T12:05:41;20.60;1.00
2945;DHT22;1482;51.398;7.128;2023-05-20T12:08:06;20.70;1.00
2945;DHT22;1482;51.398;7.128;2023-05-20T12:10:32;20.60;1.00
2945;DHT22;1482;51.398;7.128;2023-05-20T12:12:58;20.70;1.00
2945;DHT22;1482;51.398;7.128;2023-05-20T12:15:24;20.60;1.00
2945;DHT22;1482;51.398;7.128;2023-05-20T12:17:52;20.40;1.00
2945;DHT22;1482;51.398;7.128;2023-05-20T12:20:20;20.40;1.00
2945;DHT22;1482;51.398;7.128;2023-05-20T12:22:47;20.30;1.00
2945;DHT22;1482;51.398;7.128;2023-05-20T12:25:14;20.20;1.00
2945;DHT22;1482;51.398;7.128;2023-05-20T12:27:42;20.30;1.00
2945;DHT22;1482;51.398;7.128;2023-05-20T12:30:15;20.60;1.00
2945;DHT22;1482;51.398;7.128;2023-05-20T12:32:42;20.60;1.00
2945;DHT22;1482;51.398;7.128;2023-05-20T12:35:08;20.60;1.00
2945;DHT22;1482;51.398;7.128;2023-05-20T12:37:35;20.60;1.00
2945;DHT22;1482;51.398;7.128;2023-05-20T12:40:01;20.50;1.00
2945;DHT22;1482;51.398;7.128;2023-05-20T12:42:36;20.70;1.00
2945;DHT22;1482;51.398;7.128;2023-05-20T12:45:02;20.40;1.00
2945;DHT22;1482;51.398;7.128;2023-05-20T12:47:28;19.80;1.00
2945;DHT22;1482;51.398;7.128;2023-05-20T12:49:53;20.00;1.00
2945;DHT22;1482;51.398;7.128;2023-05-20T12:52:19;19.90;1.00
2945;DHT22;1482;51.398;7.128;2023-05-20T12:54:44;19.90;1.00
2945;DHT22;1482;51.398;7.128;2023-05-20T12:57:10;19.60;1.00
2945;DHT22;1482;51.398;7.128;2023-05-20T12:59:36;19.50;1.00
2945;DHT22;1482;51.398;7.128;2023-05-20T13:02:01;19.60;1.00
2945;DHT22;1482;51.398;7.128;2023-05-20T13:04:27;19.40;1.00
2945;DHT22;1482;51.398;7.128;2023-05-20T13:06:53;19.20;1.00
2945;DHT22;1482;51.398;7.128;2023-05-20T13:09:18;19.50;1.00
2945;DHT22;1482;51.398;7.128;2023-05-20T13:11:44;19.50;1.00
2945;DHT22;1482;51.398;7.128;2023-05-20T13:14:09;19.10;1.00
2945;DHT22;1482;51.398;7.128;2023-05-20T13:16:36;19.20;1.00
2945;DHT22;1482;51.398;7.128;2023-05-20T13:19:01;19.00;1.00
2945;DHT22;1482;51.398;7.128;2023-05-20T13:21:27;18.90;1.00
2945;DHT22;1482;51.398;7.128;2023-05-20T13:23:52;18.90;1.00
2945;DHT22;1482;51.398;7.128;2023-05-20T13:26:18;19.10;1.00
2945;DHT22;1482;51.398;7.128;2023-05-20T13:28:43;19.10;1.00
2945;DHT22;1482;51.398;7.128;2023-05-20T13:31:09;19.50;1.00
2945;DHT22;1482;51.398;7.128;2023-05-20T13:33:34;19.50;1.00
2945;DHT22;1482;51.398;7.128;2023-05-20T13:36:01;19.70;1.00
2945;DHT22;1482;51.398;7.128;2023-05-20T13:38:26;19.70;1.00
2945;DHT22;1482;51.398;7.128;2023-05-20T13:40:52;19.90;1.00
2945;DHT22;1482;51.398;7.128;2023-05-20T13:43:18;20.10;1.00
2945;DHT22;1482;51.398;7.128;2023-05-20T13:45:43;20.30;1.00
2945;DHT22;1482;51.398;7.128;2023-05-20T13:48:09;20.30;1.00
2945;DHT22;1482;51.398;7.128;2023-05-20T13:50:35;20.50;1.00
2945;DHT22;1482;51.398;7.128;2023-05-20T13:53:01;20.50;1.00
2945;DHT22;1482;51.398;7.128;2023-05-20T13:55:27;20.30;1.00
2945;DHT22;1482;51.398;7.128;2023-05-20T13:57:52;20.10;1.00
2945;DHT22;1482;51.398;7.128;2023-05-20T14:00:19;20.30;1.00
2945;DHT22;1482;51.398;7.128;2023-05-20T14:02:44;20.00;1.00
2945;DHT22;1482;51.398;7.128;2023-05-20T14:05:10;20.20;1.00
2945;DHT22;1482;51.398;7.128;2023-05-20T14:07:36;20.20;1.00
2945;DHT22;1482;51.398;7.128;2023-05-20T14:10:02;20.40;1.00
2945;DHT22;1482;51.398;7.128;2023-05-20T14:12:27;20.20;1.00
2945;DHT22;1482;51.398;7.128;2023-05-20T14:14:53;20.20;1.00
2945;DHT22;1482;51.398;7.128;2023-05-20T14:17:18;20.40;1.00
2945;DHT22;1482;51.398;7.128;2023-05-20T14:19:44;20.20;1.00
2945;DHT22;1482;51.398;7.128;2023-05-20T14:22:10;20.40;1.00
2945;DHT22;1482;51.398;7.128;2023-05-20T14:24:38;20.30;1.00
2945;DHT22;1482;51.398;7.128;2023-05-20T14:27:03;20.30;1.00
2945;DHT22;1482;51.398;7.128;2023-05-20T14:29:29;20.00;1.00
2945;DHT22;1482;51.398;7.128;2023-05-20T14:31:54;19.80;1.00
2945;DHT22;1482;51.398;7.128;2023-05-20T14:34:20;19.80;1.00
2945;DHT22;1482;51.398;7.128;2023-05-20T14:36:46;19.80;1.00
2945;DHT22;1482;51.398;7.128;2023-05-20T14:39:12;20.00;1.00
2945;DHT22;1482;51.398;7.128;2023-05-20T14:41:37;20.00;1.00
2945;DHT22;1482;51.398;7.128;2023-05-20T14:44:03;20.00;1.00
2945;DHT22;1482;51.398;7.128;2023-05-20T14:46:28;20.30;1.00
2945;DHT22;1482;51.398;7.128;2023-05-20T14:48:54;20.20;1.00
2945;DHT22;1482;51.398;7.128;2023-05-20T14:51:20;20.20;1.00
2945;DHT22;1482;51.398;7.128;2023-05-20T14:53:46;20.30;1.00
2945;DHT22;1482;51.398;7.128;2023-05-20T14:56:11;20.50;1.00
2945;DHT22;1482;51.398;7.128;2023-05-20T14:58:37;20.50;1.00
2945;DHT22;1482;51.398;7.128;2023-05-20T15:01:02;20.20;1.00
2945;DHT22;1482;51.398;7.128;2023-05-20T15:03:28;20.20;1.00
2945;DHT22;1482;51.398;7.128;2023-05-20T15:05:54;20.10;1.00
2945;DHT22;1482;51.398;7.128;2023-05-20T15:08:19;20.20;1.00
2945;DHT22;1482;51.398;7.128;2023-05-20T15:10:45;19.60;1.00
2945;DHT22;1482;51.398;7.128;2023-05-20T15:13:11;19.50;1.00
2945;DHT22;1482;51.398;7.128;2023-05-20T15:15:36;19.50;1.00
2945;DHT22;1482;51.398;7.128;2023-05-20T15:18:02;19.40;1.00
2945;DHT22;1482;51.398;7.128;2023-05-20T15:20:28;19.30;1.00
2945;DHT22;1482;51.398;7.128;2023-05-20T15:22:53;19.30;1.00
2945;DHT22;1482;51.398;7.128;2023-05-20T15:25:19;19.00;1.00
2945;DHT22;1482;51.398;7.128;2023-05-20T15:27:44;18.70;1.00
2945;DHT22;1482;51.398;7.128;2023-05-20T15:30:11;18.60;1.00
2945;DHT22;1482;51.398;7.128;2023-05-20T15:32:36;18.50;1.00
2945;DHT22;1482;51.398;7.128;2023-05-20T15:35:04;18.50;1.00
2945;DHT22;1482;51.398;7.128;2023-05-20T15:37:30;18.40;1.00
2945;DHT22;1482;51.398;7.128;2023-05-20T15:39:55;18.40;1.00
2945;DHT22;1482;51.398;7.128;2023-05-20T15:42:21;18.50;1.00
2945;DHT22;1482;51.398;7.128;2023-05-20T15:44:46;18.50;1.00
2945;DHT22;1482;51.398;7.128;2023-05-20T15:47:12;18.20;1.00
2945;DHT22;1482;51.398;7.128;2023-05-20T15:49:38;18.10;1.00
2945;DHT22;1482;51.398;7.128;2023-05-20T15:52:03;18.20;1.00
2945;DHT22;1482;51.398;7.128;2023-05-20T15:54:29;18.20;1.00
2945;DHT22;1482;51.398;7.128;2023-05-20T15:56:55;18.10;1.00
2945;DHT22;1482;51.398;7.128;2023-05-20T15:59:20;18.00;1.00
2945;DHT22;1482;51.398;7.128;2023-05-20T16:01:46;17.80;1.00
2945;DHT22;1482;51.398;7.128;2023-05-20T16:04:12;17.80;1.00
2945;DHT22;1482;51.398;7.128;2023-05-20T16:06:37;17.90;1.00
2945;DHT22;1482;51.398;7.128;2023-05-20T16:09:03;17.80;1.00
2945;DHT22;1482;51.398;7.128;2023-05-20T16:11:29;17.80;1.00
2945;DHT22;1482;51.398;7.128;2023-05-20T16:13:56;17.60;1.00
2945;DHT22;1482;51.398;7.128;2023-05-20T16:16:23;17.60;1.00
2945;DHT22;1482;51.398;7.128;2023-05-20T16:18:49;17.70;1.00
2945;DHT22;1482;51.398;7.128;2023-05-20T16:21:15;17.80;1.00
2945;DHT22;1482;51.398;7.128;2023-05-20T16:23:40;17.70;1.00
2945;DHT22;1482;51.398;7.128;2023-05-20T16:26:06;17.70;1.00
2945;DHT22;1482;51.398;7.128;2023-05-20T16:28:31;17.40;1.00